Clines Corners, New Mexico
Current Conditions -  °F | °C
As of 3:53 AM on Monday 22 Dec 2014 (Local Time) from KCQC Reporting Station
Scattered Clouds Scattered Clouds  
Wind Chill: 29°   Ceiling: Unl
Heat Index: 38°   Visibility: 10mi
Dew Point: 29°   Wind: 16mph
Humidity: 70%   Direction: 300°WNW
Pressure: 29.83"   Gusts: 25mph
Location:  35.01°N, 105.67°W
Report Text: KCQC 221053Z AUTO 30014G22KT 10SM SCT036 03/M02 A2983 RMK AO2 PK WND 29027/1041 SLP074 T00331017
Loading
Personal Weather Stations






























Interactive Weather Map New forecast layout! Learn more

10-Day Weather Forecast

Advertisements
Track Severe Weather on mobile